Norwegian Pearl — C6VG7 — position and weather

sailwx.info

Track history (hours):
 
Tides and Currents Weather Stations Pressure Air Temp Water Temp Dewpoint Dewpoint Depression Visibility Wind Speed Wind Dir Waves Ship Positions

Norwegian Pearl

Last reported at 2018-Jun-25 00:29 UTC. Time now 2018-Jun-25 00:40 UTC.
Position N 47°59' W 122°35'.

Type: Ship. MMSI: 309653000.

Date/timePositionNaut miles runAvg speedWind from/ knotsBaromVisibWave heightAir tempDewpointWater temp
2018-Jun-25 00:29N 47°59' W 122°35'1020.2
2018-Jun-25 00:00N 47°50' W 122°27'1019.7
2018-Jun-24 23:30N 47°40' W 122°27'611.0
2018-Jun-24 23:00N 47°37' W 122°21'0 0.1
2018-Jun-24 22:30N 47°37' W 122°21'0 0.0
2018-Jun-24 22:00N 47°37' W 122°21'0 0.0
2018-Jun-24 21:30N 47°37' W 122°21'0 0.0
2018-Jun-24 21:00N 47°37' W 122°21'0 0.0
2018-Jun-24 20:30N 47°37' W 122°21'0 0.0
2018-Jun-24 20:00N 47°37' W 122°21'0 0.0
2018-Jun-24 19:30N 47°37' W 122°21'0 0.0
2018-Jun-24 19:00N 47°37' W 122°21'0 0.0
2018-Jun-24 18:30N 47°37' W 122°21'0 0.0
2018-Jun-24 18:00N 47°37' W 122°21'0 0.0
2018-Jun-24 17:30N 47°37' W 122°21'0 0.0
2018-Jun-24 17:00N 47°37' W 122°21'0 0.0
2018-Jun-24 16:30N 47°37' W 122°21'0 0.0
2018-Jun-24 16:00N 47°37' W 122°21'0 0.0
2018-Jun-24 15:27N 47°37' W 122°21'0 0.0
2018-Jun-24 15:00N 47°37' W 122°21'0 0.0
2018-Jun-24 14:30N 47°37' W 122°21'0 0.0
2018-Jun-24 14:00N 47°37' W 122°21'0 0.0
2018-Jun-24 13:30N 47°37' W 122°21'0 0.0
2018-Jun-24 13:00N 47°37' W 122°21'0 0.6
2018-Jun-24 12:31N 47°36' W 122°21'4 8.7
2018-Jun-24 12:00N 47°38' W 122°27'611.6
2018-Jun-24 11:30N 47°44' W 122°27'713.3
2018-Jun-24 11:00N 47°50' W 122°28'4233.6
2018-Jun-24 11:00N 47°48' W 122°24'1020.4 050 / 41019.010.8 11.0 9.012.0
2018-Jun-24 10:30N 47°56' W 122°32'5 8.8
2018-Jun-24 10:00N 48°00' W 122°36'1122.0 010 / 61019.010.8 11.0 9.012.0
2018-Jun-24 09:29N 48°09' W 122°45'817.7
2018-Jun-24 09:01N 48°11' W 122°57'8496.1
2018-Jun-24 09:00N 48°06' W 122°48'1633.5 280 / 71018.010.8 11.0 9.012.0
2018-Jun-24 08:31N 48°11' W 123°11'815.6
2018-Jun-24 08:00N 48°09' W 123°22'1215.8
2018-Jun-24 07:15N 48°21' W 123°25'311.1
2018-Jun-24 07:00N 48°23' W 123°24'1 3.0
2018-Jun-24 06:30N 48°25' W 123°23'0 0.0
2018-Jun-24 00:26N 48°25' W 123°23'2 5.0
2018-Jun-23 23:59N 48°23' W 123°25'611.8
2018-Jun-23 23:30N 48°17' W 123°26'1215.9
2018-Jun-23 22:45N 48°13' W 123°42'520.6
2018-Jun-23 22:30N 48°13' W 123°50'1020.0
2018-Jun-23 22:00N 48°16' W 124°04'1020.7
2018-Jun-23 21:30N 48°20' W 124°18'1020.8
2018-Jun-23 21:00N 48°25' W 124°32'1020.1
2018-Jun-23 20:30N 48°28' W 124°46'1120.9
2018-Jun-23 20:00N 48°28' W 125°02'1019.5
2018-Jun-23 19:30N 48°33' W 125°15'1122.9
2018-Jun-23 19:01N 48°38' W 125°30'1223.6
2018-Jun-23 18:30N 48°45' W 125°45'1223.3
2018-Jun-23 18:01N 48°52' W 125°60'4212.3
2018-Jun-23 18:00N 48°48' W 126°00'1428.6 280 / 141022.010.8 12.0 14.0
2018-Jun-23 17:30N 48°58' W 126°14'1223.4
2018-Jun-23 17:00N 49°05' W 126°29'9023.7
2018-Jun-23 13:13N 50°08' W 128°07'522.1
2018-Jun-23 13:00N 50°12' W 128°12'327.7 330 / 81021.910.8 13.0 14.0
2018-Jun-23 12:52N 50°15' W 128°13'923.1
2018-Jun-23 12:29N 50°24' W 128°19'1123.1
2018-Jun-23 12:00N 50°34' W 128°24'1223.0
2018-Jun-23 11:30N 50°45' W 128°30'1122.4
2018-Jun-23 11:00N 50°55' W 128°37'177.9
2018-Jun-23 11:00N 50°54' W 128°36'1326.3 230 / 41022.010.8 11.0 9.014.0
2018-Jun-23 10:31N 51°04' W 128°49'1122.9
2018-Jun-23 10:01N 51°13' W 128°59'1223.6
2018-Jun-23 09:30N 51°23' W 129°10'1223.3
2018-Jun-23 09:00N 51°33' W 129°19'1223.4
2018-Jun-23 08:30N 51°43' W 129°29'1223.9
2018-Jun-23 08:00N 51°54' W 129°37'7456.3
2018-Jun-23 08:00N 51°48' W 129°30'2039.3 330 / 81022.010.8 11.0 9.014.0
2018-Jun-23 07:29N 52°05' W 129°45'1423.9
2018-Jun-23 06:54N 52°18' W 129°54'1213.4
2018-Jun-23 06:00N 52°30' W 130°00'2626.4 330 / 91021.0 11.0 13.0
2018-Jun-23 05:00N 52°54' W 130°18'2134.4 350 / 191021.010.8 11.0 13.0
2018-Jun-23 04:23N 53°13' W 130°34'1023.5
2018-Jun-23 03:57N 53°22' W 130°41'1023.1
2018-Jun-23 03:30N 53°31' W 130°47'1123.0
2018-Jun-23 03:00N 53°43' W 130°52'6445407025.9
2018-Jun-23 03:00S 53°42' W 130°48'645613205.4 330 / 171021.810.8 12.0 14.0
2018-Jun-23 02:30N 53°54' W 130°56'1223.3
2018-Jun-23 02:00N 54°05' W 131°01'1223.7
2018-Jun-23 01:31N 54°17' W 131°05'1223.7
2018-Jun-23 01:00N 54°28' W 131°13'1121.1
2018-Jun-23 00:30N 54°38' W 131°15'1122.7
2018-Jun-23 00:00N 54°48' W 131°05'2122.3
2018-Jun-22 23:04N 55°09' W 131°11'53 4.4
2018-Jun-22 11:00N 55°42' W 132°24'10713.4 340 / 81019.010.8 13.011.114.0
2018-Jun-22 03:00N 57°00' W 134°36'4221.2 160 / 261015.310.8 10.0 10.0
2018-Jun-22 01:00N 57°42' W 134°48'4223.0 160 / 161014.810.8 13.0 12.0
2018-Jun-21 23:11N 58°16' W 135°34'423.4
2018-Jun-21 23:00N 58°17' W 135°42'1020.2
2018-Jun-21 22:30N 58°22' W 135°58'611.2
2018-Jun-21 22:00N 58°28' W 136°02'3162.1
2018-Jun-21 22:00N 58°30' W 136°00'815.8 130 / 61015.010.8 14.012.211.0
2018-Jun-21 21:30N 58°37' W 136°05'17 3.0
2018-Jun-21 16:00N 58°48' W 136°30'910.5 140 / 121013.110.8 11.0 10.0
2018-Jun-21 15:08N 58°43' W 136°15'217.4
2018-Jun-21 15:00N 58°42' W 136°12'816.8
2018-Jun-21 14:30N 58°35' W 136°03'816.0
2018-Jun-21 14:01N 58°27' W 136°00'5 9.6
2018-Jun-21 13:30N 58°22' W 135°58'5 9.5
2018-Jun-21 13:00N 58°19' W 135°51'611.4
2018-Jun-21 12:30N 58°18' W 135°41'611.7
2018-Jun-21 12:00N 58°15' W 135°30'612.6
2018-Jun-21 11:31N 58°13' W 135°20'89 2.0
2018-Jun-19 15:00N 56°48' W 134°30'1818.0 330 / 211018.210.8 15.0 11.0
2018-Jun-19 14:00N 56°30' W 134°30'1212.0 350 / 111018.410.8 13.0 11.0
2018-Jun-19 13:00N 56°18' W 134°30'3618.1 310 / 51018.310.8 13.0 11.0
2018-Jun-19 11:00N 55°42' W 134°24'2524.9 300 / 231018.0 1.1 9.0 6.911.0
2018-Jun-19 10:00N 55°18' W 134°12'2525.0 300 / 251019.010.8 10.0 7.912.0
2018-Jun-19 09:00N 54°54' W 134°00'7 8.5 300 / 251019.0 0.3 10.0 7.912.0
2018-Jun-19 08:08N 54°47' W 133°58'1020.5
2018-Jun-19 07:38N 54°37' W 133°52'2819.7
2018-Jun-19 06:11N 54°10' W 133°36'628.0
2018-Jun-19 06:00N 54°06' W 133°30'225.5 280 / 211019.010.8 10.0 13.0
2018-Jun-19 05:55N 54°05' W 133°33'2622.2
2018-Jun-19 04:45N 53°41' W 133°18'14121.3
2018-Jun-18 22:09N 51°46' W 131°03'422.7
2018-Jun-18 21:58N 51°43' W 130°58'2722.2
2018-Jun-18 20:43N 51°22' W 130°30'621.3
2018-Jun-18 20:27N 51°18' W 130°23'1634.7
2018-Jun-18 20:00N 51°06' W 130°06'5232.2 330 / 201018.010.8 13.011.113.0
2018-Jun-18 19:58N 51°11' W 130°11'1020.5
2018-Jun-18 19:30N 51°04' W 129°60'919.0
2018-Jun-18 19:00N 50°57' W 129°49'1018.9
2018-Jun-18 18:30N 50°51' W 129°38'1019.6
2018-Jun-18 18:00N 50°44' W 129°27'1019.5
2018-Jun-18 17:30N 50°37' W 129°16'918.9
2018-Jun-18 17:00N 50°31' W 129°06'133.8
2018-Jun-18 17:00N 50°30' W 129°06'919.2 360 / 271015.010.8 12.0 13.0
2018-Jun-18 16:30N 50°24' W 128°55'919.0
2018-Jun-18 16:00N 50°17' W 128°44'1019.3
2018-Jun-18 15:30N 50°11' W 128°34'2219.0
2018-Jun-18 14:20N 49°55' W 128°08'1234.3
2018-Jun-18 14:00N 49°48' W 127°54'445.4 330 / 211012.810.8 13.0 13.0
2018-Jun-18 13:55N 49°50' W 127°59'819.2
2018-Jun-18 13:30N 49°45' W 127°50'1119.2
2018-Jun-18 12:56N 49°37' W 127°38'819.2
2018-Jun-18 12:30N 49°31' W 127°29'1019.2
2018-Jun-18 12:00N 49°25' W 127°17'8742.2
2018-Jun-18 12:00N 49°18' W 127°12'4 8.1 320 / 151012.010.8 14.0 13.0
2018-Jun-18 11:30N 49°19' W 127°06'1019.1
2018-Jun-18 11:01N 49°14' W 126°54'1019.3
2018-Jun-18 10:30N 49°08' W 126°42'1019.5
2018-Jun-18 10:00N 49°03' W 126°29'1019.7
2018-Jun-18 09:30N 48°58' W 126°16'1019.6
2018-Jun-18 09:00N 48°53' W 126°04'1019.7
2018-Jun-18 08:30N 48°47' W 125°51'1019.7
2018-Jun-18 08:00N 48°42' W 125°39'1019.7
2018-Jun-18 07:30N 48°36' W 125°26'1020.2
2018-Jun-18 07:00N 48°32' W 125°12'1021.0
2018-Jun-18 06:30N 48°31' W 124°57'1020.7
2018-Jun-18 06:00N 48°30' W 124°41'7433.0
2018-Jun-18 06:00N 48°24' W 124°36'612.9 230 / 131011.010.8 17.0 12.0
2018-Jun-18 05:30N 48°26' W 124°27'1020.1
2018-Jun-18 05:00N 48°22' W 124°13'1019.9
2018-Jun-18 04:30N 48°18' W 123°59'1325.2
2018-Jun-18 04:00N 48°12' W 123°42'4710.2 270 / 131011.010.8 16.0 11.0
2018-Jun-18 03:59N 48°16' W 123°44'918.8
2018-Jun-18 03:29N 48°14' W 123°30'815.8
2018-Jun-18 02:57N 48°09' W 123°21'916.1
2018-Jun-18 02:23N 48°12' W 123°08'715.6
2018-Jun-18 01:56N 48°12' W 122°57'2015.1
2018-Jun-18 00:36N 47°59' W 122°35'217.4
2018-Jun-18 00:30N 47°58' W 122°33'918.2
2018-Jun-18 00:00N 47°49' W 122°27'1019.3
2018-Jun-17 23:30N 47°40' W 122°28'510.7
2018-Jun-17 23:00N 47°37' W 122°21'0 0.0
2018-Jun-17 22:29N 47°37' W 122°21'0 0.0
2018-Jun-17 21:59N 47°37' W 122°21'0 0.0
2018-Jun-17 21:29N 47°37' W 122°21'0 0.0
2018-Jun-17 20:59N 47°37' W 122°21'0 0.0
2018-Jun-17 20:29N 47°37' W 122°21'0 0.0
2018-Jun-17 19:59N 47°37' W 122°21'0 0.0
2018-Jun-17 19:17N 47°37' W 122°21'0 0.0
2018-Jun-17 18:56N 47°37' W 122°21'0 0.0
2018-Jun-17 18:29N 47°37' W 122°21'0 0.0
2018-Jun-17 17:59N 47°37' W 122°21'0 0.0
2018-Jun-17 17:29N 47°37' W 122°21'0 0.0
2018-Jun-17 16:59N 47°37' W 122°21'0 0.0
2018-Jun-17 16:20N 47°37' W 122°21'0 0.0
2018-Jun-17 15:59N 47°37' W 122°21'0 0.0
2018-Jun-17 15:26N 47°37' W 122°21'0 0.0
2018-Jun-17 14:59N 47°37' W 122°21'0 0.0
2018-Jun-17 14:26N 47°37' W 122°21'0 0.0
2018-Jun-17 13:56N 47°37' W 122°21'0 0.0
2018-Jun-17 13:26N 47°37' W 122°21'0 0.0
2018-Jun-17 12:56N 47°37' W 122°21'0 0.4
2018-Jun-17 12:30N 47°37' W 122°21'4 8.8
2018-Jun-17 12:00N 47°38' W 122°27'611.3
2018-Jun-17 11:30N 47°43' W 122°27'612.5
2018-Jun-17 11:00N 47°49' W 122°28'714.3
2018-Jun-17 10:31N 47°56' W 122°32'1223.3
2018-Jun-17 10:00N 48°06' W 122°42'3277.6 260 / 21014.010.8 14.012.211.0
2018-Jun-17 09:59N 48°04' W 122°39'816.5
2018-Jun-17 09:29N 48°10' W 122°46'817.0
2018-Jun-17 09:00N 48°12' W 122°58'917.2
2018-Jun-17 08:28N 48°12' W 123°12'715.3
2018-Jun-17 08:00N 48°06' W 123°18'1419.9 280 / 161013.710.8 15.0 11.0
2018-Jun-17 07:16N 48°19' W 123°27'6 0.8
2018-Jun-16 23:55N 48°24' W 123°25'512.7
2018-Jun-16 23:30N 48°19' W 123°25'1516.2
2018-Jun-16 22:33N 48°14' W 123°47'121.4
2018-Jun-16 22:29N 48°14' W 123°49'1021.4
2018-Jun-16 22:00N 48°16' W 124°04'1121.5
2018-Jun-16 21:30N 48°21' W 124°18'1020.4
2018-Jun-16 21:00N 48°25' W 124°32'3182.6
2018-Jun-16 21:00N 48°24' W 124°36'918.7 200 / 11015.510.8 13.0 13.0
2018-Jun-16 20:30N 48°29' W 124°48'1122.2
2018-Jun-16 20:01N 48°29' W 125°04'1121.7
2018-Jun-16 19:31N 48°33' W 125°20'1122.3
2018-Jun-16 19:00N 48°39' W 125°33'1122.8
2018-Jun-16 18:30N 48°46' W 125°48'1122.8
2018-Jun-16 18:01N 48°53' W 126°02'1223.2
2018-Jun-16 17:31N 48°59' W 126°16'1223.5
2018-Jun-16 17:01N 49°06' W 126°31'137.8
2018-Jun-16 17:00N 49°06' W 126°30'1225.5 350 / 171017.010.8 13.0 11.0
2018-Jun-16 16:31N 49°13' W 126°46'1224.7
2018-Jun-16 16:01N 49°21' W 127°00'5288.3
2018-Jun-16 16:00N 49°18' W 126°54'1734.5 340 / 281017.010.8 16.0 13.0
2018-Jun-16 15:30N 49°30' W 127°12'1324.2
2018-Jun-16 14:59N 49°39' W 127°26'3124.2
2018-Jun-16 13:43N 50°01' W 127°59'523.9
2018-Jun-16 13:30N 50°05' W 128°04'1223.9
2018-Jun-16 13:01N 50°15' W 128°13'1223.9
2018-Jun-16 12:30N 50°26' W 128°20'1224.0
2018-Jun-16 12:00N 50°37' W 128°27'1224.9
2018-Jun-16 11:30N 50°50' W 128°31'1223.5
2018-Jun-16 11:00N 50°59' W 128°42'1122.8
2018-Jun-16 10:31N 51°08' W 128°53'1122.7
2018-Jun-16 10:01N 51°17' W 129°03'2100.2
2018-Jun-16 10:00N 51°18' W 129°06'1021.6 330 / 281020.010.8 11.0 9.012.0
2018-Jun-16 09:31N 51°27' W 129°13'1223.1
2018-Jun-16 09:01N 51°37' W 129°24'1122.7
2018-Jun-16 08:30N 51°47' W 129°32'1223.1
2018-Jun-16 08:01N 51°58' W 129°39'1223.2
2018-Jun-16 07:31N 52°08' W 129°47'1223.3
2018-Jun-16 07:00N 52°19' W 129°55'169.6
2018-Jun-16 07:00N 52°18' W 129°54'1326.5 340 / 231021.010.8 11.0 12.0
2018-Jun-16 06:30N 52°30' W 130°02'1223.4
2018-Jun-16 06:00N 52°41' W 130°10'2120.9
2018-Jun-16 05:00N 53°00' W 130°24'1827.1 340 / 231022.010.8 11.0 12.0
2018-Jun-16 04:19N 53°16' W 130°37'823.9
2018-Jun-16 04:00N 53°23' W 130°42'1223.9
2018-Jun-16 03:30N 53°35' W 130°49'1224.2
2018-Jun-16 03:01N 53°46' W 130°54'2108.0
2018-Jun-16 03:00N 53°48' W 130°54'1021.7 300 / 291022.610.8 10.0 12.0
2018-Jun-16 02:30N 53°58' W 130°60'1223.8
2018-Jun-16 02:00N 54°10' W 131°02'1122.9
2018-Jun-16 01:30N 54°21' W 131°08'1122.4
2018-Jun-16 01:00N 54°31' W 131°16'1222.6
2018-Jun-16 00:30N 54°42' W 131°11'1121.7
2018-Jun-16 00:00N 54°52' W 131°06'3110.2
2018-Jun-15 21:00N 55°18' W 131°36'34 3.4 190 / 151022.010.8 16.014.313.0
2018-Jun-15 11:00N 55°42' W 132°18'1615.7 260 / 91020.1 5.4 10.0 12.0
2018-Jun-15 10:00N 55°54' W 132°36'1919.2 260 / 151020.010.8 9.0 6.912.0
2018-Jun-15 09:00N 56°12' W 132°48'5313.4 240 / 81019.5 5.4 9.0 10.0
2018-Jun-15 05:00N 56°12' W 134°24'9724.2 280 / 181018.010.8 10.0 11.0
2018-Jun-15 01:00N 57°48' W 134°48'   190 / 41016.410.8 11.0 10.0
Track history (hours):
 
Tides and Currents Weather Stations Pressure Air Temp Water Temp Dewpoint Dewpoint Depression Visibility Wind Speed Wind Dir Waves Ship Positions

Norwegian Pearl

Last reported at 2018-Jun-25 00:29 UTC. Time now 2018-Jun-25 00:40 UTC.
Position N 47°59' W 122°35'.

Type: Ship. MMSI: 309653000.

Date/timePositionNaut miles runAvg speedWind from/ knotsBaromVisibWave heightAir tempDewpointWater temp
2018-Jun-25 00:29N 47°59' W 122°35'1020.2
2018-Jun-25 00:00N 47°50' W 122°27'1019.7
2018-Jun-24 23:30N 47°40' W 122°27'611.0
2018-Jun-24 23:00N 47°37' W 122°21'0 0.1
2018-Jun-24 22:30N 47°37' W 122°21'0 0.0
2018-Jun-24 22:00N 47°37' W 122°21'0 0.0
2018-Jun-24 21:30N 47°37' W 122°21'0 0.0
2018-Jun-24 21:00N 47°37' W 122°21'0 0.0
2018-Jun-24 20:30N 47°37' W 122°21'0 0.0
2018-Jun-24 20:00N 47°37' W 122°21'0 0.0
2018-Jun-24 19:30N 47°37' W 122°21'0 0.0
2018-Jun-24 19:00N 47°37' W 122°21'0 0.0
2018-Jun-24 18:30N 47°37' W 122°21'0 0.0
2018-Jun-24 18:00N 47°37' W 122°21'0 0.0
2018-Jun-24 17:30N 47°37' W 122°21'0 0.0
2018-Jun-24 17:00N 47°37' W 122°21'0 0.0
2018-Jun-24 16:30N 47°37' W 122°21'0 0.0
2018-Jun-24 16:00N 47°37' W 122°21'0 0.0
2018-Jun-24 15:27N 47°37' W 122°21'0 0.0
2018-Jun-24 15:00N 47°37' W 122°21'0 0.0
2018-Jun-24 14:30N 47°37' W 122°21'0 0.0
2018-Jun-24 14:00N 47°37' W 122°21'0 0.0
2018-Jun-24 13:30N 47°37' W 122°21'0 0.0
2018-Jun-24 13:00N 47°37' W 122°21'0 0.6
2018-Jun-24 12:31N 47°36' W 122°21'4 8.7
2018-Jun-24 12:00N 47°38' W 122°27'611.6
2018-Jun-24 11:30N 47°44' W 122°27'713.3
2018-Jun-24 11:00N 47°50' W 122°28'4233.6
2018-Jun-24 11:00N 47°48' W 122°24'1020.4 050 / 41019.010.8 11.0 9.012.0
2018-Jun-24 10:30N 47°56' W 122°32'5 8.8
2018-Jun-24 10:00N 48°00' W 122°36'1122.0 010 / 61019.010.8 11.0 9.012.0
2018-Jun-24 09:29N 48°09' W 122°45'817.7
2018-Jun-24 09:01N 48°11' W 122°57'8496.1
2018-Jun-24 09:00N 48°06' W 122°48'1633.5 280 / 71018.010.8 11.0 9.012.0
2018-Jun-24 08:31N 48°11' W 123°11'815.6
2018-Jun-24 08:00N 48°09' W 123°22'1215.8
2018-Jun-24 07:15N 48°21' W 123°25'311.1
2018-Jun-24 07:00N 48°23' W 123°24'1 3.0
2018-Jun-24 06:30N 48°25' W 123°23'0 0.0
2018-Jun-24 00:26N 48°25' W 123°23'2 5.0
2018-Jun-23 23:59N 48°23' W 123°25'611.8
2018-Jun-23 23:30N 48°17' W 123°26'1215.9
2018-Jun-23 22:45N 48°13' W 123°42'520.6
2018-Jun-23 22:30N 48°13' W 123°50'1020.0
2018-Jun-23 22:00N 48°16' W 124°04'1020.7
2018-Jun-23 21:30N 48°20' W 124°18'1020.8
2018-Jun-23 21:00N 48°25' W 124°32'1020.1
2018-Jun-23 20:30N 48°28' W 124°46'1120.9
2018-Jun-23 20:00N 48°28' W 125°02'1019.5
2018-Jun-23 19:30N 48°33' W 125°15'1122.9
2018-Jun-23 19:01N 48°38' W 125°30'1223.6
2018-Jun-23 18:30N 48°45' W 125°45'1223.3
2018-Jun-23 18:01N 48°52' W 125°60'4212.3
2018-Jun-23 18:00N 48°48' W 126°00'1428.6 280 / 141022.010.8 12.0 14.0
2018-Jun-23 17:30N 48°58' W 126°14'1223.4
2018-Jun-23 17:00N 49°05' W 126°29'9023.7
2018-Jun-23 13:13N 50°08' W 128°07'522.1
2018-Jun-23 13:00N 50°12' W 128°12'327.7 330 / 81021.910.8 13.0 14.0
2018-Jun-23 12:52N 50°15' W 128°13'923.1
2018-Jun-23 12:29N 50°24' W 128°19'1123.1
2018-Jun-23 12:00N 50°34' W 128°24'1223.0
2018-Jun-23 11:30N 50°45' W 128°30'1122.4
2018-Jun-23 11:00N 50°55' W 128°37'177.9
2018-Jun-23 11:00N 50°54' W 128°36'1326.3 230 / 41022.010.8 11.0 9.014.0
2018-Jun-23 10:31N 51°04' W 128°49'1122.9
2018-Jun-23 10:01N 51°13' W 128°59'1223.6
2018-Jun-23 09:30N 51°23' W 129°10'1223.3
2018-Jun-23 09:00N 51°33' W 129°19'1223.4
2018-Jun-23 08:30N 51°43' W 129°29'1223.9
2018-Jun-23 08:00N 51°54' W 129°37'7456.3
2018-Jun-23 08:00N 51°48' W 129°30'2039.3 330 / 81022.010.8 11.0 9.014.0
2018-Jun-23 07:29N 52°05' W 129°45'1423.9
2018-Jun-23 06:54N 52°18' W 129°54'1213.4
2018-Jun-23 06:00N 52°30' W 130°00'2626.4 330 / 91021.0 11.0 13.0
2018-Jun-23 05:00N 52°54' W 130°18'2134.4 350 / 191021.010.8 11.0 13.0
2018-Jun-23 04:23N 53°13' W 130°34'1023.5
2018-Jun-23 03:57N 53°22' W 130°41'1023.1
2018-Jun-23 03:30N 53°31' W 130°47'1123.0
2018-Jun-23 03:00N 53°43' W 130°52'6445407025.9
2018-Jun-23 03:00S 53°42' W 130°48'645613205.4 330 / 171021.810.8 12.0 14.0
2018-Jun-23 02:30N 53°54' W 130°56'1223.3
2018-Jun-23 02:00N 54°05' W 131°01'1223.7
2018-Jun-23 01:31N 54°17' W 131°05'1223.7
2018-Jun-23 01:00N 54°28' W 131°13'1121.1
2018-Jun-23 00:30N 54°38' W 131°15'1122.7
2018-Jun-23 00:00N 54°48' W 131°05'2122.3
2018-Jun-22 23:04N 55°09' W 131°11'53 4.4
2018-Jun-22 11:00N 55°42' W 132°24'10713.4 340 / 81019.010.8 13.011.114.0
2018-Jun-22 03:00N 57°00' W 134°36'4221.2 160 / 261015.310.8 10.0 10.0
2018-Jun-22 01:00N 57°42' W 134°48'4223.0 160 / 161014.810.8 13.0 12.0
2018-Jun-21 23:11N 58°16' W 135°34'423.4
2018-Jun-21 23:00N 58°17' W 135°42'1020.2
2018-Jun-21 22:30N 58°22' W 135°58'611.2
2018-Jun-21 22:00N 58°28' W 136°02'3162.1
2018-Jun-21 22:00N 58°30' W 136°00'815.8 130 / 61015.010.8 14.012.211.0
2018-Jun-21 21:30N 58°37' W 136°05'17 3.0
2018-Jun-21 16:00N 58°48' W 136°30'910.5 140 / 121013.110.8 11.0 10.0
2018-Jun-21 15:08N 58°43' W 136°15'217.4
2018-Jun-21 15:00N 58°42' W 136°12'816.8
2018-Jun-21 14:30N 58°35' W 136°03'816.0
2018-Jun-21 14:01N 58°27' W 136°00'5 9.6
2018-Jun-21 13:30N 58°22' W 135°58'5 9.5
2018-Jun-21 13:00N 58°19' W 135°51'611.4
2018-Jun-21 12:30N 58°18' W 135°41'611.7
2018-Jun-21 12:00N 58°15' W 135°30'612.6
2018-Jun-21 11:31N 58°13' W 135°20'89 2.0
2018-Jun-19 15:00N 56°48' W 134°30'1818.0 330 / 211018.210.8 15.0 11.0
2018-Jun-19 14:00N 56°30' W 134°30'1212.0 350 / 111018.410.8 13.0 11.0
2018-Jun-19 13:00N 56°18' W 134°30'3618.1 310 / 51018.310.8 13.0 11.0
2018-Jun-19 11:00N 55°42' W 134°24'2524.9 300 / 231018.0 1.1 9.0 6.911.0
2018-Jun-19 10:00N 55°18' W 134°12'2525.0 300 / 251019.010.8 10.0 7.912.0
2018-Jun-19 09:00N 54°54' W 134°00'7 8.5 300 / 251019.0 0.3 10.0 7.912.0
2018-Jun-19 08:08N 54°47' W 133°58'1020.5
2018-Jun-19 07:38N 54°37' W 133°52'2819.7
2018-Jun-19 06:11N 54°10' W 133°36'628.0
2018-Jun-19 06:00N 54°06' W 133°30'225.5 280 / 211019.010.8 10.0 13.0
2018-Jun-19 05:55N 54°05' W 133°33'2622.2
2018-Jun-19 04:45N 53°41' W 133°18'14121.3
2018-Jun-18 22:09N 51°46' W 131°03'422.7
2018-Jun-18 21:58N 51°43' W 130°58'2722.2
2018-Jun-18 20:43N 51°22' W 130°30'621.3
2018-Jun-18 20:27N 51°18' W 130°23'1634.7
2018-Jun-18 20:00N 51°06' W 130°06'5232.2 330 / 201018.010.8 13.011.113.0
2018-Jun-18 19:58N 51°11' W 130°11'1020.5
2018-Jun-18 19:30N 51°04' W 129°60'919.0
2018-Jun-18 19:00N 50°57' W 129°49'1018.9
2018-Jun-18 18:30N 50°51' W 129°38'1019.6
2018-Jun-18 18:00N 50°44' W 129°27'1019.5
2018-Jun-18 17:30N 50°37' W 129°16'918.9
2018-Jun-18 17:00N 50°31' W 129°06'133.8
2018-Jun-18 17:00N 50°30' W 129°06'919.2 360 / 271015.010.8 12.0 13.0
2018-Jun-18 16:30N 50°24' W 128°55'919.0
2018-Jun-18 16:00N 50°17' W 128°44'1019.3
2018-Jun-18 15:30N 50°11' W 128°34'2219.0
2018-Jun-18 14:20N 49°55' W 128°08'1234.3
2018-Jun-18 14:00N 49°48' W 127°54'445.4 330 / 211012.810.8 13.0 13.0
2018-Jun-18 13:55N 49°50' W 127°59'819.2
2018-Jun-18 13:30N 49°45' W 127°50'1119.2
2018-Jun-18 12:56N 49°37' W 127°38'819.2
2018-Jun-18 12:30N 49°31' W 127°29'1019.2
2018-Jun-18 12:00N 49°25' W 127°17'8742.2
2018-Jun-18 12:00N 49°18' W 127°12'4 8.1 320 / 151012.010.8 14.0 13.0
2018-Jun-18 11:30N 49°19' W 127°06'1019.1
2018-Jun-18 11:01N 49°14' W 126°54'1019.3
2018-Jun-18 10:30N 49°08' W 126°42'1019.5
2018-Jun-18 10:00N 49°03' W 126°29'1019.7
2018-Jun-18 09:30N 48°58' W 126°16'1019.6
2018-Jun-18 09:00N 48°53' W 126°04'1019.7
2018-Jun-18 08:30N 48°47' W 125°51'1019.7
2018-Jun-18 08:00N 48°42' W 125°39'1019.7
2018-Jun-18 07:30N 48°36' W 125°26'1020.2
2018-Jun-18 07:00N 48°32' W 125°12'1021.0
2018-Jun-18 06:30N 48°31' W 124°57'1020.7
2018-Jun-18 06:00N 48°30' W 124°41'7433.0
2018-Jun-18 06:00N 48°24' W 124°36'612.9 230 / 131011.010.8 17.0 12.0
2018-Jun-18 05:30N 48°26' W 124°27'1020.1
2018-Jun-18 05:00N 48°22' W 124°13'1019.9
2018-Jun-18 04:30N 48°18' W 123°59'1325.2
2018-Jun-18 04:00N 48°12' W 123°42'4710.2 270 / 131011.010.8 16.0 11.0
2018-Jun-18 03:59N 48°16' W 123°44'918.8
2018-Jun-18 03:29N 48°14' W 123°30'815.8
2018-Jun-18 02:57N 48°09' W 123°21'916.1
2018-Jun-18 02:23N 48°12' W 123°08'715.6
2018-Jun-18 01:56N 48°12' W 122°57'2015.1
2018-Jun-18 00:36N 47°59' W 122°35'217.4
2018-Jun-18 00:30N 47°58' W 122°33'918.2
2018-Jun-18 00:00N 47°49' W 122°27'1019.3
2018-Jun-17 23:30N 47°40' W 122°28'510.7
2018-Jun-17 23:00N 47°37' W 122°21'0 0.0
2018-Jun-17 22:29N 47°37' W 122°21'0 0.0
2018-Jun-17 21:59N 47°37' W 122°21'0 0.0
2018-Jun-17 21:29N 47°37' W 122°21'0 0.0
2018-Jun-17 20:59N 47°37' W 122°21'0 0.0
2018-Jun-17 20:29N 47°37' W 122°21'0 0.0
2018-Jun-17 19:59N 47°37' W 122°21'0 0.0
2018-Jun-17 19:17N 47°37' W 122°21'0 0.0
2018-Jun-17 18:56N 47°37' W 122°21'0 0.0
2018-Jun-17 18:29N 47°37' W 122°21'0 0.0
2018-Jun-17 17:59N 47°37' W 122°21'0 0.0
2018-Jun-17 17:29N 47°37' W 122°21'0 0.0
2018-Jun-17 16:59N 47°37' W 122°21'0 0.0
2018-Jun-17 16:20N 47°37' W 122°21'0 0.0
2018-Jun-17 15:59N 47°37' W 122°21'0 0.0
2018-Jun-17 15:26N 47°37' W 122°21'0 0.0
2018-Jun-17 14:59N 47°37' W 122°21'0 0.0
2018-Jun-17 14:26N 47°37' W 122°21'0 0.0
2018-Jun-17 13:56N 47°37' W 122°21'0 0.0
2018-Jun-17 13:26N 47°37' W 122°21'0 0.0
2018-Jun-17 12:56N 47°37' W 122°21'0 0.4
2018-Jun-17 12:30N 47°37' W 122°21'4 8.8
2018-Jun-17 12:00N 47°38' W 122°27'611.3
2018-Jun-17 11:30N 47°43' W 122°27'612.5
2018-Jun-17 11:00N 47°49' W 122°28'714.3
2018-Jun-17 10:31N 47°56' W 122°32'1223.3
2018-Jun-17 10:00N 48°06' W 122°42'3277.6 260 / 21014.010.8 14.012.211.0
2018-Jun-17 09:59N 48°04' W 122°39'816.5
2018-Jun-17 09:29N 48°10' W 122°46'817.0
2018-Jun-17 09:00N 48°12' W 122°58'917.2
2018-Jun-17 08:28N 48°12' W 123°12'715.3
2018-Jun-17 08:00N 48°06' W 123°18'1419.9 280 / 161013.710.8 15.0 11.0
2018-Jun-17 07:16N 48°19' W 123°27'6 0.8
2018-Jun-16 23:55N 48°24' W 123°25'512.7
2018-Jun-16 23:30N 48°19' W 123°25'1516.2
2018-Jun-16 22:33N 48°14' W 123°47'121.4
2018-Jun-16 22:29N 48°14' W 123°49'1021.4
2018-Jun-16 22:00N 48°16' W 124°04'1121.5
2018-Jun-16 21:30N 48°21' W 124°18'1020.4
2018-Jun-16 21:00N 48°25' W 124°32'3182.6
2018-Jun-16 21:00N 48°24' W 124°36'918.7 200 / 11015.510.8 13.0 13.0
2018-Jun-16 20:30N 48°29' W 124°48'1122.2
2018-Jun-16 20:01N 48°29' W 125°04'1121.7
2018-Jun-16 19:31N 48°33' W 125°20'1122.3
2018-Jun-16 19:00N 48°39' W 125°33'1122.8
2018-Jun-16 18:30N 48°46' W 125°48'1122.8
2018-Jun-16 18:01N 48°53' W 126°02'1223.2
2018-Jun-16 17:31N 48°59' W 126°16'1223.5
2018-Jun-16 17:01N 49°06' W 126°31'137.8
2018-Jun-16 17:00N 49°06' W 126°30'1225.5 350 / 171017.010.8 13.0 11.0
2018-Jun-16 16:31N 49°13' W 126°46'1224.7
2018-Jun-16 16:01N 49°21' W 127°00'5288.3
2018-Jun-16 16:00N 49°18' W 126°54'1734.5 340 / 281017.010.8 16.0 13.0
2018-Jun-16 15:30N 49°30' W 127°12'1324.2
2018-Jun-16 14:59N 49°39' W 127°26'3124.2
2018-Jun-16 13:43N 50°01' W 127°59'523.9
2018-Jun-16 13:30N 50°05' W 128°04'1223.9
2018-Jun-16 13:01N 50°15' W 128°13'1223.9
2018-Jun-16 12:30N 50°26' W 128°20'1224.0
2018-Jun-16 12:00N 50°37' W 128°27'1224.9
2018-Jun-16 11:30N 50°50' W 128°31'1223.5
2018-Jun-16 11:00N 50°59' W 128°42'1122.8
2018-Jun-16 10:31N 51°08' W 128°53'1122.7
2018-Jun-16 10:01N 51°17' W 129°03'2100.2
2018-Jun-16 10:00N 51°18' W 129°06'1021.6 330 / 281020.010.8 11.0 9.012.0
2018-Jun-16 09:31N 51°27' W 129°13'1223.1
2018-Jun-16 09:01N 51°37' W 129°24'1122.7
2018-Jun-16 08:30N 51°47' W 129°32'1223.1
2018-Jun-16 08:01N 51°58' W 129°39'1223.2
2018-Jun-16 07:31N 52°08' W 129°47'1223.3
2018-Jun-16 07:00N 52°19' W 129°55'169.6
2018-Jun-16 07:00N 52°18' W 129°54'1326.5 340 / 231021.010.8 11.0 12.0
2018-Jun-16 06:30N 52°30' W 130°02'1223.4
2018-Jun-16 06:00N 52°41' W 130°10'2120.9
2018-Jun-16 05:00N 53°00' W 130°24'1827.1 340 / 231022.010.8 11.0 12.0
2018-Jun-16 04:19N 53°16' W 130°37'823.9
2018-Jun-16 04:00N 53°23' W 130°42'1223.9
2018-Jun-16 03:30N 53°35' W 130°49'1224.2
2018-Jun-16 03:01N 53°46' W 130°54'2108.0
2018-Jun-16 03:00N 53°48' W 130°54'1021.7 300 / 291022.610.8 10.0 12.0
2018-Jun-16 02:30N 53°58' W 130°60'1223.8
2018-Jun-16 02:00N 54°10' W 131°02'1122.9
2018-Jun-16 01:30N 54°21' W 131°08'1122.4
2018-Jun-16 01:00N 54°31' W 131°16'1222.6
2018-Jun-16 00:30N 54°42' W 131°11'1121.7
2018-Jun-16 00:00N 54°52' W 131°06'3110.2
2018-Jun-15 21:00N 55°18' W 131°36'34 3.4 190 / 151022.010.8 16.014.313.0
2018-Jun-15 11:00N 55°42' W 132°18'1615.7 260 / 91020.1 5.4 10.0 12.0
2018-Jun-15 10:00N 55°54' W 132°36'1919.2 260 / 151020.010.8 9.0 6.912.0
2018-Jun-15 09:00N 56°12' W 132°48'5313.4 240 / 81019.5 5.4 9.0 10.0
2018-Jun-15 05:00N 56°12' W 134°24'9724.2 280 / 181018.010.8 10.0 11.0
2018-Jun-15 01:00N 57°48' W 134°48'   190 / 41016.410.8 11.0 10.0

Dump ship's entire track history